sensor_id;sensor_type;location;lat;lon;timestamp;pressure;altitude;pressure_sealevel;temperature;humidity
40940;BME280;26666;50.156;7.700;2023-04-09T00:04:54;101323.69;;;8.61;100.00
40940;BME280;26666;50.156;7.700;2023-04-09T00:09:57;101323.72;;;8.76;100.00
40940;BME280;26666;50.156;7.700;2023-04-09T00:14:58;101317.13;;;8.68;100.00
40940;BME280;26666;50.156;7.700;2023-04-09T00:20:00;101322.59;;;8.51;100.00
40940;BME280;26666;50.156;7.700;2023-04-09T00:25:04;101328.00;;;8.34;100.00
40940;BME280;26666;50.156;7.700;2023-04-09T00:30:07;101320.63;;;8.55;100.00
40940;BME280;26666;50.156;7.700;2023-04-09T00:35:09;101310.06;;;8.55;100.00
40940;BME280;26666;50.156;7.700;2023-04-09T00:40:12;101310.63;;;8.45;100.00
40940;BME280;26666;50.156;7.700;2023-04-09T00:45:14;101313.00;;;8.64;100.00
40940;BME280;26666;50.156;7.700;2023-04-09T00:50:16;101316.56;;;8.49;100.00
40940;BME280;26666;50.156;7.700;2023-04-09T00:55:19;101315.00;;;8.30;100.00
40940;BME280;26666;50.156;7.700;2023-04-09T01:00:21;101316.34;;;8.38;100.00
40940;BME280;26666;50.156;7.700;2023-04-09T01:05:24;101317.69;;;8.45;100.00
40940;BME280;26666;50.156;7.700;2023-04-09T01:10:34;101309.50;;;8.49;100.00
40940;BME280;26666;50.156;7.700;2023-04-09T01:15:43;101316.28;;;8.54;100.00
40940;BME280;26666;50.156;7.700;2023-04-09T01:20:49;101315.41;;;8.39;100.00
40940;BME280;26666;50.156;7.700;2023-04-09T01:26:02;101313.88;;;8.35;100.00
40940;BME280;26666;50.156;7.700;2023-04-09T01:31:10;101313.53;;;8.41;100.00
40940;BME280;26666;50.156;7.700;2023-04-09T01:36:13;101317.03;;;8.41;100.00
40940;BME280;26666;50.156;7.700;2023-04-09T01:41:17;101317.31;;;8.51;100.00
40940;BME280;26666;50.156;7.700;2023-04-09T01:46:21;101323.81;;;8.45;100.00
40940;BME280;26666;50.156;7.700;2023-04-09T01:51:23;101315.75;;;8.33;100.00
40940;BME280;26666;50.156;7.700;2023-04-09T01:56:26;101312.41;;;8.59;100.00
40940;BME280;26666;50.156;7.700;2023-04-09T02:01:32;101322.66;;;8.49;100.00
40940;BME280;26666;50.156;7.700;2023-04-09T02:06:38;101320.50;;;8.42;100.00
40940;BME280;26666;50.156;7.700;2023-04-09T02:11:41;101314.22;;;8.44;100.00
40940;BME280;26666;50.156;7.700;2023-04-09T02:16:45;101310.31;;;8.36;100.00
40940;BME280;26666;50.156;7.700;2023-04-09T02:21:47;101311.69;;;8.43;100.00
40940;BME280;26666;50.156;7.700;2023-04-09T02:26:49;101306.66;;;8.24;100.00
40940;BME280;26666;50.156;7.700;2023-04-09T02:31:52;101304.75;;;8.40;100.00
40940;BME280;26666;50.156;7.700;2023-04-09T02:36:53;101303.25;;;8.22;100.00
40940;BME280;26666;50.156;7.700;2023-04-09T02:41:55;101302.59;;;8.18;100.00
40940;BME280;26666;50.156;7.700;2023-04-09T02:46:58;101307.78;;;8.34;100.00
40940;BME280;26666;50.156;7.700;2023-04-09T02:52:00;101308.16;;;8.14;100.00
40940;BME280;26666;50.156;7.700;2023-04-09T02:57:01;101310.41;;;8.20;100.00
40940;BME280;26666;50.156;7.700;2023-04-09T03:02:04;101303.31;;;8.51;100.00
40940;BME280;26666;50.156;7.700;2023-04-09T03:07:06;101302.50;;;8.34;100.00
40940;BME280;26666;50.156;7.700;2023-04-09T03:12:08;101291.97;;;8.34;100.00
40940;BME280;26666;50.156;7.700;2023-04-09T03:17:11;101287.22;;;8.55;100.00
40940;BME280;26666;50.156;7.700;2023-04-09T03:22:12;101282.09;;;8.38;100.00
40940;BME280;26666;50.156;7.700;2023-04-09T03:27:14;101284.00;;;8.21;100.00
40940;BME280;26666;50.156;7.700;2023-04-09T03:32:17;101276.56;;;8.28;100.00
40940;BME280;26666;50.156;7.700;2023-04-09T03:37:19;101285.97;;;8.18;100.00
40940;BME280;26666;50.156;7.700;2023-04-09T03:42:21;101279.06;;;8.15;100.00
40940;BME280;26666;50.156;7.700;2023-04-09T03:47:24;101275.91;;;8.39;100.00
40940;BME280;26666;50.156;7.700;2023-04-09T03:52:26;101276.72;;;8.25;100.00
40940;BME280;26666;50.156;7.700;2023-04-09T03:57:27;101270.91;;;8.20;100.00
40940;BME280;26666;50.156;7.700;2023-04-09T04:02:30;101271.94;;;8.32;100.00
40940;BME280;26666;50.156;7.700;2023-04-09T04:07:32;101284.63;;;8.25;100.00
40940;BME280;26666;50.156;7.700;2023-04-09T04:12:34;101277.66;;;8.38;100.00
40940;BME280;26666;50.156;7.700;2023-04-09T04:17:37;101277.78;;;8.22;100.00
40940;BME280;26666;50.156;7.700;2023-04-09T04:22:38;101283.78;;;8.10;100.00
40940;BME280;26666;50.156;7.700;2023-04-09T04:27:40;101288.22;;;8.09;100.00
40940;BME280;26666;50.156;7.700;2023-04-09T04:32:43;101289.50;;;8.02;100.00
40940;BME280;26666;50.156;7.700;2023-04-09T04:37:48;101287.72;;;7.88;100.00
40940;BME280;26666;50.156;7.700;2023-04-09T04:42:49;101292.09;;;7.74;100.00
40940;BME280;26666;50.156;7.700;2023-04-09T04:47:52;101294.94;;;7.55;100.00
40940;BME280;26666;50.156;7.700;2023-04-09T04:52:54;101300.81;;;7.44;100.00
40940;BME280;26666;50.156;7.700;2023-04-09T04:57:56;101294.88;;;7.40;100.00
40940;BME280;26666;50.156;7.700;2023-04-09T05:02:59;101299.91;;;7.29;100.00
40940;BME280;26666;50.156;7.700;2023-04-09T05:08:01;101298.31;;;7.26;100.00
40940;BME280;26666;50.156;7.700;2023-04-09T05:13:02;101298.53;;;7.22;100.00
40940;BME280;26666;50.156;7.700;2023-04-09T05:18:05;101306.75;;;7.31;100.00
40940;BME280;26666;50.156;7.700;2023-04-09T05:23:07;101301.50;;;7.47;100.00
40940;BME280;26666;50.156;7.700;2023-04-09T05:28:09;101307.81;;;8.63;100.00
40940;BME280;26666;50.156;7.700;2023-04-09T05:33:12;101308.03;;;9.01;99.34
40940;BME280;26666;50.156;7.700;2023-04-09T05:38:13;101308.56;;;9.61;94.64
40940;BME280;26666;50.156;7.700;2023-04-09T05:43:15;101313.63;;;10.42;90.07
40940;BME280;26666;50.156;7.700;2023-04-09T05:48:18;101316.72;;;10.99;85.40
40940;BME280;26666;50.156;7.700;2023-04-09T05:53:20;101310.94;;;11.42;82.22
40940;BME280;26666;50.156;7.700;2023-04-09T05:58:22;101313.13;;;12.19;78.55
40940;BME280;26666;50.156;7.700;2023-04-09T06:03:25;101316.78;;;12.52;76.10
40940;BME280;26666;50.156;7.700;2023-04-09T06:08:27;101316.25;;;12.92;73.10
40940;BME280;26666;50.156;7.700;2023-04-09T06:13:28;101319.97;;;13.23;71.68
40940;BME280;26666;50.156;7.700;2023-04-09T06:18:31;101335.31;;;13.84;70.17
40940;BME280;26666;50.156;7.700;2023-04-09T06:23:34;101336.69;;;14.20;67.01
40940;BME280;26666;50.156;7.700;2023-04-09T06:28:36;101330.72;;;14.59;66.82
40940;BME280;26666;50.156;7.700;2023-04-09T06:33:39;101328.84;;;14.50;67.20
40940;BME280;26666;50.156;7.700;2023-04-09T06:38:40;101331.66;;;13.85;69.03
40940;BME280;26666;50.156;7.700;2023-04-09T06:43:42;101328.38;;;14.66;67.00
40940;BME280;26666;50.156;7.700;2023-04-09T06:48:45;101329.00;;;15.49;64.68
40940;BME280;26666;50.156;7.700;2023-04-09T06:53:47;101331.25;;;15.83;62.55
40940;BME280;26666;50.156;7.700;2023-04-09T06:58:49;101322.03;;;16.34;59.81
40940;BME280;26666;50.156;7.700;2023-04-09T07:03:52;101319.13;;;16.55;59.23
40940;BME280;26666;50.156;7.700;2023-04-09T07:08:54;101311.38;;;16.71;58.52
40940;BME280;26666;50.156;7.700;2023-04-09T07:13:57;101317.19;;;17.12;57.78
40940;BME280;26666;50.156;7.700;2023-04-09T07:19:00;101322.72;;;17.65;55.38
40940;BME280;26666;50.156;7.700;2023-04-09T07:24:01;101322.56;;;17.84;54.30
40940;BME280;26666;50.156;7.700;2023-04-09T07:29:03;101324.06;;;17.51;55.66
40940;BME280;26666;50.156;7.700;2023-04-09T07:34:06;101319.63;;;17.96;53.83
40940;BME280;26666;50.156;7.700;2023-04-09T07:39:08;101323.47;;;18.45;54.07
40940;BME280;26666;50.156;7.700;2023-04-09T07:44:09;101314.97;;;17.98;53.03
40940;BME280;26666;50.156;7.700;2023-04-09T07:49:12;101317.75;;;16.88;55.96
40940;BME280;26666;50.156;7.700;2023-04-09T07:54:14;101315.09;;;16.51;56.36
40940;BME280;26666;50.156;7.700;2023-04-09T07:59:16;101316.91;;;16.03;57.03
40940;BME280;26666;50.156;7.700;2023-04-09T08:04:19;101321.03;;;15.78;60.23
40940;BME280;26666;50.156;7.700;2023-04-09T08:09:21;101312.44;;;15.65;61.83
40940;BME280;26666;50.156;7.700;2023-04-09T08:14:23;101312.44;;;15.65;59.50
40940;BME280;26666;50.156;7.700;2023-04-09T08:19:26;101312.16;;;15.48;59.96
40940;BME280;26666;50.156;7.700;2023-04-09T08:24:28;101314.66;;;15.21;61.14
40940;BME280;26666;50.156;7.700;2023-04-09T08:29:29;101324.38;;;15.41;58.51
40940;BME280;26666;50.156;7.700;2023-04-09T08:34:36;101331.91;;;14.76;61.56
40940;BME280;26666;50.156;7.700;2023-04-09T08:39:38;101326.00;;;15.23;60.84
40940;BME280;26666;50.156;7.700;2023-04-09T08:44:39;101327.00;;;14.71;62.14
40940;BME280;26666;50.156;7.700;2023-04-09T08:49:42;101331.78;;;14.05;62.92
40940;BME280;26666;50.156;7.700;2023-04-09T08:54:44;101325.09;;;14.31;61.73
40940;BME280;26666;50.156;7.700;2023-04-09T08:59:46;101328.25;;;14.67;62.54
40940;BME280;26666;50.156;7.700;2023-04-09T09:04:49;101328.94;;;14.38;63.15
40940;BME280;26666;50.156;7.700;2023-04-09T09:09:53;101330.06;;;14.36;61.35
40940;BME280;26666;50.156;7.700;2023-04-09T09:14:55;101334.91;;;14.10;61.61
40940;BME280;26666;50.156;7.700;2023-04-09T09:19:58;101334.66;;;14.13;61.23
40940;BME280;26666;50.156;7.700;2023-04-09T09:24:59;101325.50;;;14.48;62.23
40940;BME280;26666;50.156;7.700;2023-04-09T09:30:02;101319.56;;;14.65;60.99
40940;BME280;26666;50.156;7.700;2023-04-09T09:35:06;101319.03;;;14.19;62.98
40940;BME280;26666;50.156;7.700;2023-04-09T09:40:09;101314.41;;;14.43;61.85
40940;BME280;26666;50.156;7.700;2023-04-09T09:45:16;101302.72;;;14.03;60.21
40940;BME280;26666;50.156;7.700;2023-04-09T09:50:22;101291.59;;;14.40;61.74
40940;BME280;26666;50.156;7.700;2023-04-09T09:55:26;101287.34;;;14.37;62.19
40940;BME280;26666;50.156;7.700;2023-04-09T10:00:31;101271.69;;;14.34;60.24
40940;BME280;26666;50.156;7.700;2023-04-09T10:05:35;101273.09;;;14.69;58.77
40940;BME280;26666;50.156;7.700;2023-04-09T10:10:40;101264.50;;;14.56;58.33
40940;BME280;26666;50.156;7.700;2023-04-09T10:15:42;101259.97;;;14.77;55.86
40940;BME280;26666;50.156;7.700;2023-04-09T10:20:49;101256.00;;;14.62;58.72
40940;BME280;26666;50.156;7.700;2023-04-09T10:25:54;101277.56;;;14.69;55.54
40940;BME280;26666;50.156;7.700;2023-04-09T10:30:57;101264.19;;;14.90;54.88
40940;BME280;26666;50.156;7.700;2023-04-09T10:36:02;101256.06;;;14.91;54.31
40940;BME280;26666;50.156;7.700;2023-04-09T10:41:13;101264.19;;;14.18;54.03
40940;BME280;26666;50.156;7.700;2023-04-09T10:46:25;101266.59;;;14.00;52.05
40940;BME280;26666;50.156;7.700;2023-04-09T10:51:33;101256.50;;;14.56;55.34
40940;BME280;26666;50.156;7.700;2023-04-09T10:56:35;101262.38;;;14.19;56.51
40940;BME280;26666;50.156;7.700;2023-04-09T11:01:37;101257.06;;;14.19;53.15
40940;BME280;26666;50.156;7.700;2023-04-09T11:06:40;101258.41;;;14.34;53.60
40940;BME280;26666;50.156;7.700;2023-04-09T11:11:51;101258.47;;;14.23;52.68
40940;BME280;26666;50.156;7.700;2023-04-09T11:16:53;101269.06;;;14.13;52.24
40940;BME280;26666;50.156;7.700;2023-04-09T11:21:56;101258.94;;;14.28;51.09
40940;BME280;26666;50.156;7.700;2023-04-09T11:26:59;101255.44;;;14.07;53.43
40940;BME280;26666;50.156;7.700;2023-04-09T11:32:01;101259.81;;;13.87;55.98
40940;BME280;26666;50.156;7.700;2023-04-09T11:37:04;101253.38;;;14.10;54.99
40940;BME280;26666;50.156;7.700;2023-04-09T11:42:06;101247.94;;;14.12;53.07
40940;BME280;26666;50.156;7.700;2023-04-09T11:47:08;101254.88;;;14.03;54.39
40940;BME280;26666;50.156;7.700;2023-04-09T11:52:11;101246.75;;;14.05;54.41
40940;BME280;26666;50.156;7.700;2023-04-09T11:57:13;101242.06;;;14.18;57.37
40940;BME280;26666;50.156;7.700;2023-04-09T12:02:16;101251.31;;;13.93;55.89
40940;BME280;26666;50.156;7.700;2023-04-09T12:07:31;101241.97;;;13.98;54.19
40940;BME280;26666;50.156;7.700;2023-04-09T12:12:43;101249.66;;;13.92;56.24
40940;BME280;26666;50.156;7.700;2023-04-09T12:17:47;101252.72;;;13.66;54.55
40940;BME280;26666;50.156;7.700;2023-04-09T12:22:51;101240.72;;;13.51;54.25
40940;BME280;26666;50.156;7.700;2023-04-09T12:27:54;101223.09;;;13.71;55.75
40940;BME280;26666;50.156;7.700;2023-04-09T12:32:57;101224.56;;;13.64;54.04
40940;BME280;26666;50.156;7.700;2023-04-09T12:38:01;101219.66;;;13.59;55.83
40940;BME280;26666;50.156;7.700;2023-04-09T12:43:02;101228.09;;;13.64;53.58
40940;BME280;26666;50.156;7.700;2023-04-09T12:48:04;101224.50;;;13.75;52.25
40940;BME280;26666;50.156;7.700;2023-04-09T12:53:07;101230.88;;;13.63;53.31
40940;BME280;26666;50.156;7.700;2023-04-09T12:58:09;101227.09;;;13.65;54.51
40940;BME280;26666;50.156;7.700;2023-04-09T13:03:10;101222.50;;;13.67;54.75
40940;BME280;26666;50.156;7.700;2023-04-09T13:08:14;101235.78;;;13.67;54.58
40940;BME280;26666;50.156;7.700;2023-04-09T13:13:15;101225.03;;;13.90;55.07
40940;BME280;26666;50.156;7.700;2023-04-09T13:18:17;101218.63;;;13.71;53.74
40940;BME280;26666;50.156;7.700;2023-04-09T13:23:20;101213.88;;;13.75;54.02
40940;BME280;26666;50.156;7.700;2023-04-09T13:28:22;101207.97;;;13.92;54.08
40940;BME280;26666;50.156;7.700;2023-04-09T13:33:23;101195.03;;;13.78;52.78
40940;BME280;26666;50.156;7.700;2023-04-09T13:38:26;101184.94;;;14.03;52.12
40940;BME280;26666;50.156;7.700;2023-04-09T13:43:28;101190.75;;;13.87;52.66
40940;BME280;26666;50.156;7.700;2023-04-09T13:48:30;101193.16;;;13.69;54.64
40940;BME280;26666;50.156;7.700;2023-04-09T13:53:33;101192.91;;;14.03;53.57
40940;BME280;26666;50.156;7.700;2023-04-09T13:58:34;101189.75;;;13.78;52.72
40940;BME280;26666;50.156;7.700;2023-04-09T14:03:37;101192.06;;;13.71;52.62
40940;BME280;26666;50.156;7.700;2023-04-09T14:08:40;101188.03;;;13.77;52.98
40940;BME280;26666;50.156;7.700;2023-04-09T14:13:44;101182.09;;;13.64;53.89
40940;BME280;26666;50.156;7.700;2023-04-09T14:18:45;101178.78;;;13.71;52.83
40940;BME280;26666;50.156;7.700;2023-04-09T14:23:48;101187.28;;;13.65;53.60
40940;BME280;26666;50.156;7.700;2023-04-09T14:28:50;101171.09;;;13.68;51.88
40940;BME280;26666;50.156;7.700;2023-04-09T14:33:53;101168.31;;;13.70;52.67
40940;BME280;26666;50.156;7.700;2023-04-09T14:38:56;101156.88;;;13.79;52.31
40940;BME280;26666;50.156;7.700;2023-04-09T14:43:58;101160.84;;;13.64;52.98
40940;BME280;26666;50.156;7.700;2023-04-09T14:49:00;101167.31;;;13.71;53.80
40940;BME280;26666;50.156;7.700;2023-04-09T14:54:03;101168.16;;;13.71;54.13
40940;BME280;26666;50.156;7.700;2023-04-09T14:59:07;101172.81;;;13.79;53.19
40940;BME280;26666;50.156;7.700;2023-04-09T15:04:08;101171.75;;;13.60;53.30
40940;BME280;26666;50.156;7.700;2023-04-09T15:09:12;101156.91;;;13.89;53.82
40940;BME280;26666;50.156;7.700;2023-04-09T15:14:13;101157.81;;;13.68;54.77
40940;BME280;26666;50.156;7.700;2023-04-09T15:19:15;101155.94;;;13.59;53.94
40940;BME280;26666;50.156;7.700;2023-04-09T15:24:18;101157.00;;;13.47;54.51
40940;BME280;26666;50.156;7.700;2023-04-09T15:29:19;101162.44;;;13.45;56.98
40940;BME280;26666;50.156;7.700;2023-04-09T15:34:21;101149.34;;;13.53;53.80
40940;BME280;26666;50.156;7.700;2023-04-09T15:39:24;101147.34;;;13.46;57.32
40940;BME280;26666;50.156;7.700;2023-04-09T15:44:26;101149.25;;;13.22;58.11
40940;BME280;26666;50.156;7.700;2023-04-09T15:49:27;101143.00;;;13.45;56.87
40940;BME280;26666;50.156;7.700;2023-04-09T15:54:30;101132.19;;;13.15;54.23
40940;BME280;26666;50.156;7.700;2023-04-09T15:59:32;101131.75;;;12.99;54.53
40940;BME280;26666;50.156;7.700;2023-04-09T16:04:34;101143.19;;;12.99;54.16
40940;BME280;26666;50.156;7.700;2023-04-09T16:09:37;101149.28;;;12.90;55.07
40940;BME280;26666;50.156;7.700;2023-04-09T16:14:39;101139.25;;;12.94;54.99
40940;BME280;26666;50.156;7.700;2023-04-09T16:19:41;101139.53;;;12.91;62.01
40940;BME280;26666;50.156;7.700;2023-04-09T16:24:44;101146.25;;;12.95;59.70
40940;BME280;26666;50.156;7.700;2023-04-09T16:29:46;101143.47;;;12.96;59.03
40940;BME280;26666;50.156;7.700;2023-04-09T16:34:47;101143.63;;;12.83;57.94
40940;BME280;26666;50.156;7.700;2023-04-09T16:39:51;101138.22;;;12.85;59.11
40940;BME280;26666;50.156;7.700;2023-04-09T16:44:52;101132.78;;;12.87;56.14
40940;BME280;26666;50.156;7.700;2023-04-09T16:49:54;101141.03;;;12.72;58.83
40940;BME280;26666;50.156;7.700;2023-04-09T16:54:57;101136.66;;;12.82;56.32
40940;BME280;26666;50.156;7.700;2023-04-09T16:59:59;101131.00;;;12.76;64.13
40940;BME280;26666;50.156;7.700;2023-04-09T17:05:00;101137.66;;;12.70;nan
40940;BME280;26666;50.156;7.700;2023-04-09T17:10:05;101137.84;;;12.57;64.12
40940;BME280;26666;50.156;7.700;2023-04-09T17:15:08;101129.53;;;12.51;62.27
40940;BME280;26666;50.156;7.700;2023-04-09T17:20:11;101132.44;;;12.48;60.50
40940;BME280;26666;50.156;7.700;2023-04-09T17:25:14;101135.81;;;12.50;63.16
40940;BME280;26666;50.156;7.700;2023-04-09T17:30:16;101132.69;;;12.45;59.10
40940;BME280;26666;50.156;7.700;2023-04-09T17:35:18;101132.44;;;12.48;58.71
40940;BME280;26666;50.156;7.700;2023-04-09T17:40:21;101138.09;;;12.43;60.07
40940;BME280;26666;50.156;7.700;2023-04-09T17:45:24;101131.47;;;12.37;59.89
40940;BME280;26666;50.156;7.700;2023-04-09T17:50:26;101130.44;;;12.17;64.46
40940;BME280;26666;50.156;7.700;2023-04-09T17:55:29;101123.97;;;11.99;64.25
40940;BME280;26666;50.156;7.700;2023-04-09T18:00:31;101116.81;;;11.77;67.26
40940;BME280;26666;50.156;7.700;2023-04-09T18:05:32;101116.94;;;11.53;65.56
40940;BME280;26666;50.156;7.700;2023-04-09T18:10:36;101127.03;;;11.48;68.15
40940;BME280;26666;50.156;7.700;2023-04-09T18:15:37;101128.69;;;11.26;69.88
40940;BME280;26666;50.156;7.700;2023-04-09T18:20:39;101122.63;;;11.13;69.97
40940;BME280;26666;50.156;7.700;2023-04-09T18:25:42;101129.06;;;10.97;70.17
40940;BME280;26666;50.156;7.700;2023-04-09T18:30:44;101139.56;;;10.75;70.46
40940;BME280;26666;50.156;7.700;2023-04-09T18:35:46;101133.44;;;10.50;71.36
40940;BME280;26666;50.156;7.700;2023-04-09T18:40:49;101141.81;;;10.44;71.38
40940;BME280;26666;50.156;7.700;2023-04-09T18:45:51;101145.50;;;10.29;72.85
40940;BME280;26666;50.156;7.700;2023-04-09T18:50:52;101150.31;;;10.23;73.28
40940;BME280;26666;50.156;7.700;2023-04-09T18:55:55;101159.19;;;10.10;72.90
40940;BME280;26666;50.156;7.700;2023-04-09T19:00:57;101161.53;;;10.01;73.71
40940;BME280;26666;50.156;7.700;2023-04-09T19:05:59;101169.34;;;9.90;74.68
40940;BME280;26666;50.156;7.700;2023-04-09T19:11:02;101165.34;;;9.84;73.41
40940;BME280;26666;50.156;7.700;2023-04-09T19:16:05;101177.06;;;9.67;74.37
40940;BME280;26666;50.156;7.700;2023-04-09T19:21:07;101176.03;;;9.57;74.43
40940;BME280;26666;50.156;7.700;2023-04-09T19:26:10;101179.19;;;9.50;75.24
40940;BME280;26666;50.156;7.700;2023-04-09T19:31:11;101184.22;;;9.40;76.26
40940;BME280;26666;50.156;7.700;2023-04-09T19:36:13;101173.97;;;9.22;77.04
40940;BME280;26666;50.156;7.700;2023-04-09T19:41:16;101176.94;;;9.31;76.11
40940;BME280;26666;50.156;7.700;2023-04-09T19:46:18;101174.50;;;9.27;76.96
40940;BME280;26666;50.156;7.700;2023-04-09T19:51:19;101180.25;;;9.07;77.55
40940;BME280;26666;50.156;7.700;2023-04-09T19:56:23;101178.31;;;8.96;78.31
40940;BME280;26666;50.156;7.700;2023-04-09T20:01:25;101178.72;;;8.90;77.79
40940;BME280;26666;50.156;7.700;2023-04-09T20:06:27;101175.41;;;9.01;76.61
40940;BME280;26666;50.156;7.700;2023-04-09T20:11:30;101175.28;;;8.75;76.16
40940;BME280;26666;50.156;7.700;2023-04-09T20:16:31;101168.38;;;8.60;77.22
40940;BME280;26666;50.156;7.700;2023-04-09T20:21:33;101171.63;;;8.51;78.05
40940;BME280;26666;50.156;7.700;2023-04-09T20:26:36;101172.63;;;8.48;78.04
40940;BME280;26666;50.156;7.700;2023-04-09T20:31:38;101166.22;;;8.38;79.19
40940;BME280;26666;50.156;7.700;2023-04-09T20:36:39;101166.06;;;8.26;79.96
40940;BME280;26666;50.156;7.700;2023-04-09T20:41:42;101162.50;;;8.42;79.53
40940;BME280;26666;50.156;7.700;2023-04-09T20:46:44;101172.53;;;8.35;80.24
40940;BME280;26666;50.156;7.700;2023-04-09T20:51:46;101165.34;;;8.10;80.46
40940;BME280;26666;50.156;7.700;2023-04-09T20:56:49;101164.19;;;8.14;80.41
40940;BME280;26666;50.156;7.700;2023-04-09T21:01:50;101162.22;;;8.03;81.06
40940;BME280;26666;50.156;7.700;2023-04-09T21:06:52;101162.06;;;7.92;82.49
40940;BME280;26666;50.156;7.700;2023-04-09T21:11:55;101168.91;;;7.95;82.56
40940;BME280;26666;50.156;7.700;2023-04-09T21:16:57;101170.25;;;8.02;81.66
40940;BME280;26666;50.156;7.700;2023-04-09T21:21:59;101170.88;;;7.91;81.16
40940;BME280;26666;50.156;7.700;2023-04-09T21:27:02;101168.38;;;7.45;82.37
40940;BME280;26666;50.156;7.700;2023-04-09T21:32:04;101168.22;;;7.62;81.77
40940;BME280;26666;50.156;7.700;2023-04-09T21:37:06;101155.38;;;7.72;81.77
40940;BME280;26666;50.156;7.700;2023-04-09T21:42:09;101150.03;;;7.59;82.04
40940;BME280;26666;50.156;7.700;2023-04-09T21:47:11;101154.31;;;7.46;83.05
40940;BME280;26666;50.156;7.700;2023-04-09T21:52:12;101146.59;;;7.43;83.42
40940;BME280;26666;50.156;7.700;2023-04-09T21:57:16;101149.16;;;7.44;83.31
40940;BME280;26666;50.156;7.700;2023-04-09T22:02:18;101150.94;;;7.44;82.73
40940;BME280;26666;50.156;7.700;2023-04-09T22:07:20;101161.78;;;7.23;82.69
40940;BME280;26666;50.156;7.700;2023-04-09T22:12:23;101153.88;;;7.23;83.33
40940;BME280;26666;50.156;7.700;2023-04-09T22:17:25;101150.56;;;7.05;84.43
40940;BME280;26666;50.156;7.700;2023-04-09T22:22:27;101158.59;;;7.02;85.14
40940;BME280;26666;50.156;7.700;2023-04-09T22:27:30;101163.88;;;7.02;85.28
40940;BME280;26666;50.156;7.700;2023-04-09T22:32:31;101154.56;;;6.97;84.79
40940;BME280;26666;50.156;7.700;2023-04-09T22:37:33;101153.53;;;6.99;83.87
40940;BME280;26666;50.156;7.700;2023-04-09T22:42:36;101157.69;;;7.03;83.31
40940;BME280;26666;50.156;7.700;2023-04-09T22:47:38;101164.34;;;6.95;83.10
40940;BME280;26666;50.156;7.700;2023-04-09T22:52:39;101176.13;;;6.87;83.48
40940;BME280;26666;50.156;7.700;2023-04-09T22:57:43;101165.38;;;6.76;83.37
40940;BME280;26666;50.156;7.700;2023-04-09T23:02:44;101164.00;;;6.69;83.75
40940;BME280;26666;50.156;7.700;2023-04-09T23:07:46;101162.41;;;6.66;84.18
40940;BME280;26666;50.156;7.700;2023-04-09T23:12:50;101159.03;;;6.64;84.66
40940;BME280;26666;50.156;7.700;2023-04-09T23:17:51;101162.75;;;6.60;85.64
40940;BME280;26666;50.156;7.700;2023-04-09T23:22:53;101160.56;;;6.53;84.79
40940;BME280;26666;50.156;7.700;2023-04-09T23:27:56;101158.03;;;6.35;85.15
40940;BME280;26666;50.156;7.700;2023-04-09T23:32:58;101161.81;;;6.45;84.68
40940;BME280;26666;50.156;7.700;2023-04-09T23:37:59;101164.44;;;6.45;83.85
40940;BME280;26666;50.156;7.700;2023-04-09T23:43:03;101170.63;;;6.28;85.10
40940;BME280;26666;50.156;7.700;2023-04-09T23:48:05;101161.69;;;5.99;87.41
40940;BME280;26666;50.156;7.700;2023-04-09T23:53:07;101170.72;;;6.27;85.55
40940;BME280;26666;50.156;7.700;2023-04-09T23:58:10;101170.03;;;6.07;86.92
